sensor_id;sensor_type;location;lat;lon;timestamp;P1;durP1;ratioP1;P2;durP2;ratioP2
31848;SDS011;18414;59.352;18.152;2023-04-01T00:00:53;1.30;;;1.20;;
31848;SDS011;18414;59.352;18.152;2023-04-01T00:03:19;3.10;;;1.50;;
31848;SDS011;18414;59.352;18.152;2023-04-01T00:05:45;3.00;;;1.50;;
31848;SDS011;18414;59.352;18.152;2023-04-01T00:08:11;1.30;;;1.20;;
31848;SDS011;18414;59.352;18.152;2023-04-01T00:10:36;2.10;;;1.13;;
31848;SDS011;18414;59.352;18.152;2023-04-01T00:13:02;1.90;;;1.30;;
31848;SDS011;18414;59.352;18.152;2023-04-01T00:15:27;1.80;;;1.60;;
31848;SDS011;18414;59.352;18.152;2023-04-01T00:17:53;2.17;;;1.40;;
31848;SDS011;18414;59.352;18.152;2023-04-01T00:20:20;3.20;;;1.40;;
31848;SDS011;18414;59.352;18.152;2023-04-01T00:22:45;2.10;;;1.60;;
31848;SDS011;18414;59.352;18.152;2023-04-01T00:25:10;2.77;;;1.50;;
31848;SDS011;18414;59.352;18.152;2023-04-01T00:27:37;6.27;;;1.50;;
31848;SDS011;18414;59.352;18.152;2023-04-01T00:30:03;1.50;;;1.20;;
31848;SDS011;18414;59.352;18.152;2023-04-01T00:32:31;1.97;;;1.20;;
31848;SDS011;18414;59.352;18.152;2023-04-01T00:34:56;3.30;;;1.20;;
31848;SDS011;18414;59.352;18.152;2023-04-01T00:37:24;1.70;;;1.40;;
31848;SDS011;18414;59.352;18.152;2023-04-01T00:39:52;5.33;;;1.67;;
31848;SDS011;18414;59.352;18.152;2023-04-01T00:42:17;2.40;;;1.40;;
31848;SDS011;18414;59.352;18.152;2023-04-01T00:44:44;2.07;;;1.37;;
31848;SDS011;18414;59.352;18.152;2023-04-01T00:47:10;2.40;;;1.30;;
31848;SDS011;18414;59.352;18.152;2023-04-01T00:49:37;1.23;;;1.13;;
31848;SDS011;18414;59.352;18.152;2023-04-01T00:52:05;1.50;;;1.40;;
31848;SDS011;18414;59.352;18.152;2023-04-01T00:54:32;1.60;;;1.10;;
31848;SDS011;18414;59.352;18.152;2023-04-01T00:57:07;3.30;;;1.43;;
31848;SDS011;18414;59.352;18.152;2023-04-01T00:59:48;3.87;;;1.50;;
31848;SDS011;18414;59.352;18.152;2023-04-01T01:02:15;1.60;;;1.30;;
31848;SDS011;18414;59.352;18.152;2023-04-01T01:04:40;1.87;;;1.33;;
31848;SDS011;18414;59.352;18.152;2023-04-01T01:07:17;3.93;;;1.40;;
31848;SDS011;18414;59.352;18.152;2023-04-01T01:09:56;1.70;;;1.20;;
31848;SDS011;18414;59.352;18.152;2023-04-01T01:13:04;1.50;;;1.40;;
31848;SDS011;18414;59.352;18.152;2023-04-01T01:15:57;1.67;;;1.30;;
31848;SDS011;18414;59.352;18.152;2023-04-01T01:24:16;2.53;;;1.50;;
31848;SDS011;18414;59.352;18.152;2023-04-01T01:26:53;2.20;;;1.43;;
31848;SDS011;18414;59.352;18.152;2023-04-01T01:35:14;2.80;;;1.30;;
31848;SDS011;18414;59.352;18.152;2023-04-01T01:37:44;3.10;;;1.30;;
31848;SDS011;18414;59.352;18.152;2023-04-01T01:40:11;2.97;;;1.50;;
31848;SDS011;18414;59.352;18.152;2023-04-01T01:42:38;2.73;;;1.60;;
31848;SDS011;18414;59.352;18.152;2023-04-01T01:45:06;1.63;;;1.40;;
31848;SDS011;18414;59.352;18.152;2023-04-01T01:47:33;3.43;;;1.40;;
31848;SDS011;18414;59.352;18.152;2023-04-01T01:49:59;1.37;;;1.20;;
31848;SDS011;18414;59.352;18.152;2023-04-01T01:52:27;2.03;;;1.37;;
31848;SDS011;18414;59.352;18.152;2023-04-01T01:54:54;1.93;;;1.40;;
31848;SDS011;18414;59.352;18.152;2023-04-01T01:57:25;1.73;;;1.30;;
31848;SDS011;18414;59.352;18.152;2023-04-01T01:59:52;1.60;;;1.30;;
31848;SDS011;18414;59.352;18.152;2023-04-01T02:02:21;4.83;;;1.37;;
31848;SDS011;18414;59.352;18.152;2023-04-01T02:04:47;1.53;;;1.10;;
31848;SDS011;18414;59.352;18.152;2023-04-01T02:07:15;1.83;;;1.30;;
31848;SDS011;18414;59.352;18.152;2023-04-01T02:09:43;1.57;;;1.10;;
31848;SDS011;18414;59.352;18.152;2023-04-01T02:12:09;2.97;;;1.00;;
31848;SDS011;18414;59.352;18.152;2023-04-01T02:17:26;1.63;;;1.10;;
31848;SDS011;18414;59.352;18.152;2023-04-01T02:19:54;1.50;;;1.10;;
31848;SDS011;18414;59.352;18.152;2023-04-01T02:22:23;2.03;;;1.00;;
31848;SDS011;18414;59.352;18.152;2023-04-01T02:24:52;2.40;;;1.10;;
31848;SDS011;18414;59.352;18.152;2023-04-01T02:27:19;1.50;;;1.10;;
31848;SDS011;18414;59.352;18.152;2023-04-01T02:29:45;1.00;;;0.93;;
31848;SDS011;18414;59.352;18.152;2023-04-01T02:32:10;6.30;;;1.53;;
31848;SDS011;18414;59.352;18.152;2023-04-01T02:34:37;1.80;;;1.17;;
31848;SDS011;18414;59.352;18.152;2023-04-01T02:37:03;1.47;;;1.23;;
31848;SDS011;18414;59.352;18.152;2023-04-01T02:39:29;1.30;;;1.10;;
31848;SDS011;18414;59.352;18.152;2023-04-01T02:41:55;2.60;;;1.50;;
31848;SDS011;18414;59.352;18.152;2023-04-01T02:44:20;1.27;;;1.03;;
31848;SDS011;18414;59.352;18.152;2023-04-01T02:46:45;1.40;;;1.10;;
31848;SDS011;18414;59.352;18.152;2023-04-01T02:49:11;1.63;;;1.00;;
31848;SDS011;18414;59.352;18.152;2023-04-01T02:51:36;2.57;;;1.33;;
31848;SDS011;18414;59.352;18.152;2023-04-01T02:54:02;3.30;;;1.23;;
31848;SDS011;18414;59.352;18.152;2023-04-01T02:56:27;0.80;;;0.80;;
31848;SDS011;18414;59.352;18.152;2023-04-01T02:58:54;1.60;;;1.17;;
31848;SDS011;18414;59.352;18.152;2023-04-01T03:01:20;2.50;;;1.23;;
31848;SDS011;18414;59.352;18.152;2023-04-01T03:03:45;1.30;;;1.10;;
31848;SDS011;18414;59.352;18.152;2023-04-01T03:06:12;2.77;;;1.30;;
31848;SDS011;18414;59.352;18.152;2023-04-01T03:08:39;2.77;;;1.10;;
31848;SDS011;18414;59.352;18.152;2023-04-01T03:11:04;2.77;;;1.23;;
31848;SDS011;18414;59.352;18.152;2023-04-01T03:13:30;1.37;;;1.17;;
31848;SDS011;18414;59.352;18.152;2023-04-01T03:15:56;1.50;;;1.10;;
31848;SDS011;18414;59.352;18.152;2023-04-01T03:18:21;2.80;;;1.37;;
31848;SDS011;18414;59.352;18.152;2023-04-01T03:20:46;1.30;;;1.00;;
31848;SDS011;18414;59.352;18.152;2023-04-01T03:23:12;1.43;;;1.20;;
31848;SDS011;18414;59.352;18.152;2023-04-01T03:25:38;1.10;;;1.00;;
31848;SDS011;18414;59.352;18.152;2023-04-01T03:28:03;1.50;;;1.10;;
31848;SDS011;18414;59.352;18.152;2023-04-01T03:30:29;2.30;;;1.20;;
31848;SDS011;18414;59.352;18.152;2023-04-01T03:32:56;1.23;;;1.03;;
31848;SDS011;18414;59.352;18.152;2023-04-01T03:35:27;0.90;;;0.90;;
31848;SDS011;18414;59.352;18.152;2023-04-01T03:37:53;1.53;;;1.30;;
31848;SDS011;18414;59.352;18.152;2023-04-01T03:40:19;1.90;;;1.47;;
31848;SDS011;18414;59.352;18.152;2023-04-01T03:42:45;2.80;;;1.30;;
31848;SDS011;18414;59.352;18.152;2023-04-01T03:45:10;0.90;;;0.80;;
31848;SDS011;18414;59.352;18.152;2023-04-01T03:47:36;1.53;;;1.23;;
31848;SDS011;18414;59.352;18.152;2023-04-01T03:50:02;2.30;;;1.40;;
31848;SDS011;18414;59.352;18.152;2023-04-01T03:52:28;2.67;;;1.30;;
31848;SDS011;18414;59.352;18.152;2023-04-01T03:54:53;1.50;;;1.20;;
31848;SDS011;18414;59.352;18.152;2023-04-01T03:57:19;2.00;;;1.20;;
31848;SDS011;18414;59.352;18.152;2023-04-01T03:59:44;1.00;;;0.90;;
31848;SDS011;18414;59.352;18.152;2023-04-01T04:02:09;1.20;;;1.10;;
31848;SDS011;18414;59.352;18.152;2023-04-01T04:04:35;1.40;;;0.80;;
31848;SDS011;18414;59.352;18.152;2023-04-01T04:07:00;1.13;;;1.03;;
31848;SDS011;18414;59.352;18.152;2023-04-01T04:09:26;1.90;;;1.30;;
31848;SDS011;18414;59.352;18.152;2023-04-01T04:11:51;1.00;;;0.90;;
31848;SDS011;18414;59.352;18.152;2023-04-01T04:14:16;2.03;;;1.40;;
31848;SDS011;18414;59.352;18.152;2023-04-01T04:16:42;2.83;;;1.27;;
31848;SDS011;18414;59.352;18.152;2023-04-01T04:19:07;1.87;;;1.50;;
31848;SDS011;18414;59.352;18.152;2023-04-01T04:21:33;1.37;;;1.03;;
31848;SDS011;18414;59.352;18.152;2023-04-01T04:23:59;1.43;;;1.10;;
31848;SDS011;18414;59.352;18.152;2023-04-01T04:26:25;2.30;;;1.00;;
31848;SDS011;18414;59.352;18.152;2023-04-01T04:28:51;1.60;;;1.10;;
31848;SDS011;18414;59.352;18.152;2023-04-01T04:31:20;6.03;;;1.20;;
31848;SDS011;18414;59.352;18.152;2023-04-01T04:33:46;1.20;;;1.10;;
31848;SDS011;18414;59.352;18.152;2023-04-01T04:36:13;3.17;;;1.43;;
31848;SDS011;18414;59.352;18.152;2023-04-01T04:38:38;2.83;;;1.00;;
31848;SDS011;18414;59.352;18.152;2023-04-01T04:41:08;2.53;;;1.30;;
31848;SDS011;18414;59.352;18.152;2023-04-01T04:43:34;2.00;;;1.37;;
31848;SDS011;18414;59.352;18.152;2023-04-01T04:46:03;1.67;;;1.00;;
31848;SDS011;18414;59.352;18.152;2023-04-01T04:48:30;2.43;;;1.20;;
31848;SDS011;18414;59.352;18.152;2023-04-01T04:50:55;1.90;;;1.10;;
31848;SDS011;18414;59.352;18.152;2023-04-01T04:53:20;2.23;;;1.37;;
31848;SDS011;18414;59.352;18.152;2023-04-01T04:55:46;1.20;;;1.10;;
31848;SDS011;18414;59.352;18.152;2023-04-01T04:58:13;2.50;;;1.37;;
31848;SDS011;18414;59.352;18.152;2023-04-01T05:00:39;1.93;;;1.00;;
31848;SDS011;18414;59.352;18.152;2023-04-01T05:03:05;2.43;;;1.23;;
31848;SDS011;18414;59.352;18.152;2023-04-01T05:05:30;2.60;;;1.30;;
31848;SDS011;18414;59.352;18.152;2023-04-01T05:07:56;3.13;;;1.40;;
31848;SDS011;18414;59.352;18.152;2023-04-01T05:10:21;1.43;;;1.00;;
31848;SDS011;18414;59.352;18.152;2023-04-01T05:12:46;1.87;;;1.00;;
31848;SDS011;18414;59.352;18.152;2023-04-01T05:15:12;2.03;;;1.30;;
31848;SDS011;18414;59.352;18.152;2023-04-01T05:17:37;1.77;;;1.30;;
31848;SDS011;18414;59.352;18.152;2023-04-01T05:20:03;1.27;;;1.13;;
31848;SDS011;18414;59.352;18.152;2023-04-01T05:22:28;1.70;;;1.33;;
31848;SDS011;18414;59.352;18.152;2023-04-01T05:24:54;1.63;;;1.20;;
31848;SDS011;18414;59.352;18.152;2023-04-01T05:27:20;1.00;;;0.90;;
31848;SDS011;18414;59.352;18.152;2023-04-01T05:29:45;1.83;;;1.00;;
31848;SDS011;18414;59.352;18.152;2023-04-01T05:32:11;3.83;;;1.30;;
31848;SDS011;18414;59.352;18.152;2023-04-01T05:34:36;7.03;;;1.40;;
31848;SDS011;18414;59.352;18.152;2023-04-01T05:37:01;2.67;;;0.90;;
31848;SDS011;18414;59.352;18.152;2023-04-01T05:39:27;1.90;;;1.03;;
31848;SDS011;18414;59.352;18.152;2023-04-01T05:41:52;1.97;;;1.23;;
31848;SDS011;18414;59.352;18.152;2023-04-01T05:44:17;2.00;;;1.03;;
31848;SDS011;18414;59.352;18.152;2023-04-01T05:46:43;1.53;;;1.20;;
31848;SDS011;18414;59.352;18.152;2023-04-01T05:49:08;2.73;;;1.10;;
31848;SDS011;18414;59.352;18.152;2023-04-01T05:51:33;3.57;;;1.10;;
31848;SDS011;18414;59.352;18.152;2023-04-01T05:53:59;1.80;;;1.27;;
31848;SDS011;18414;59.352;18.152;2023-04-01T05:56:24;2.63;;;1.10;;
31848;SDS011;18414;59.352;18.152;2023-04-01T05:58:53;2.63;;;0.90;;
31848;SDS011;18414;59.352;18.152;2023-04-01T06:01:18;1.60;;;0.93;;
31848;SDS011;18414;59.352;18.152;2023-04-01T06:03:44;1.43;;;1.23;;
31848;SDS011;18414;59.352;18.152;2023-04-01T06:06:13;2.37;;;1.20;;
31848;SDS011;18414;59.352;18.152;2023-04-01T06:08:45;1.17;;;0.73;;
31848;SDS011;18414;59.352;18.152;2023-04-01T06:16:39;4.40;;;0.90;;
31848;SDS011;18414;59.352;18.152;2023-04-01T06:19:19;1.73;;;1.10;;
31848;SDS011;18414;59.352;18.152;2023-04-01T06:27:39;1.07;;;0.80;;
31848;SDS011;18414;59.352;18.152;2023-04-01T06:44:31;1.40;;;1.00;;
31848;SDS011;18414;59.352;18.152;2023-04-01T06:47:15;3.03;;;1.23;;
31848;SDS011;18414;59.352;18.152;2023-04-01T06:52:47;0.87;;;0.80;;
31848;SDS011;18414;59.352;18.152;2023-04-01T06:58:10;1.53;;;0.90;;
31848;SDS011;18414;59.352;18.152;2023-04-01T07:00:44;4.37;;;0.90;;
31848;SDS011;18414;59.352;18.152;2023-04-01T07:03:23;1.53;;;0.80;;
31848;SDS011;18414;59.352;18.152;2023-04-01T07:05:54;1.30;;;0.90;;
31848;SDS011;18414;59.352;18.152;2023-04-01T07:08:23;1.60;;;0.80;;
31848;SDS011;18414;59.352;18.152;2023-04-01T07:10:53;1.20;;;0.80;;
31848;SDS011;18414;59.352;18.152;2023-04-01T07:13:24;1.77;;;0.93;;
31848;SDS011;18414;59.352;18.152;2023-04-01T07:16:05;3.80;;;1.13;;
31848;SDS011;18414;59.352;18.152;2023-04-01T07:18:39;2.47;;;1.00;;
31848;SDS011;18414;59.352;18.152;2023-04-01T07:21:10;2.97;;;0.83;;
31848;SDS011;18414;59.352;18.152;2023-04-01T07:23:59;4.03;;;1.10;;
31848;SDS011;18414;59.352;18.152;2023-04-01T07:26:26;1.60;;;0.90;;
31848;SDS011;18414;59.352;18.152;2023-04-01T07:28:52;3.37;;;1.10;;
31848;SDS011;18414;59.352;18.152;2023-04-01T07:37:15;1.07;;;0.73;;
31848;SDS011;18414;59.352;18.152;2023-04-01T07:45:41;1.13;;;0.70;;
31848;SDS011;18414;59.352;18.152;2023-04-01T07:57:10;4.83;;;1.17;;
31848;SDS011;18414;59.352;18.152;2023-04-01T08:05:25;2.00;;;1.03;;
31848;SDS011;18414;59.352;18.152;2023-04-01T08:13:22;1.17;;;0.90;;
31848;SDS011;18414;59.352;18.152;2023-04-01T08:15:53;1.73;;;0.93;;
31848;SDS011;18414;59.352;18.152;2023-04-01T08:21:23;3.07;;;1.17;;
31848;SDS011;18414;59.352;18.152;2023-04-01T08:23:52;2.53;;;1.00;;
31848;SDS011;18414;59.352;18.152;2023-04-01T08:26:38;1.50;;;0.93;;
31848;SDS011;18414;59.352;18.152;2023-04-01T08:29:11;1.00;;;0.90;;
31848;SDS011;18414;59.352;18.152;2023-04-01T08:34:32;1.13;;;1.00;;
31848;SDS011;18414;59.352;18.152;2023-04-01T08:37:03;1.23;;;0.97;;
31848;SDS011;18414;59.352;18.152;2023-04-01T08:39:37;0.70;;;0.70;;
31848;SDS011;18414;59.352;18.152;2023-04-01T08:42:12;2.33;;;1.10;;
31848;SDS011;18414;59.352;18.152;2023-04-01T08:47:56;2.63;;;1.13;;
31848;SDS011;18414;59.352;18.152;2023-04-01T08:51:09;2.30;;;1.13;;
31848;SDS011;18414;59.352;18.152;2023-04-01T08:54:23;1.90;;;0.73;;
31848;SDS011;18414;59.352;18.152;2023-04-01T08:57:21;2.20;;;1.23;;
31848;SDS011;18414;59.352;18.152;2023-04-01T09:08:57;3.23;;;1.13;;
31848;SDS011;18414;59.352;18.152;2023-04-01T09:11:46;1.17;;;0.80;;
31848;SDS011;18414;59.352;18.152;2023-04-01T09:28:34;0.77;;;0.77;;
31848;SDS011;18414;59.352;18.152;2023-04-01T09:55:30;1.00;;;0.60;;
31848;SDS011;18414;59.352;18.152;2023-04-01T09:58:13;0.60;;;0.60;;
31848;SDS011;18414;59.352;18.152;2023-04-01T10:01:03;1.70;;;0.80;;
31848;SDS011;18414;59.352;18.152;2023-04-01T10:03:49;0.80;;;0.80;;
31848;SDS011;18414;59.352;18.152;2023-04-01T10:09:39;1.80;;;0.90;;
31848;SDS011;18414;59.352;18.152;2023-04-01T10:20:58;0.97;;;0.67;;
31848;SDS011;18414;59.352;18.152;2023-04-01T10:23:41;1.60;;;0.90;;
31848;SDS011;18414;59.352;18.152;2023-04-01T10:36:58;3.03;;;0.73;;
31848;SDS011;18414;59.352;18.152;2023-04-01T11:01:40;0.70;;;0.50;;
31848;SDS011;18414;59.352;18.152;2023-04-01T11:24:52;0.83;;;0.50;;
31848;SDS011;18414;59.352;18.152;2023-04-01T11:30:33;0.50;;;0.50;;
31848;SDS011;18414;59.352;18.152;2023-04-01T11:33:05;3.43;;;0.47;;
31848;SDS011;18414;59.352;18.152;2023-04-01T11:35:38;1.00;;;0.60;;
31848;SDS011;18414;59.352;18.152;2023-04-01T11:38:44;0.47;;;0.47;;
31848;SDS011;18414;59.352;18.152;2023-04-01T11:49:36;0.83;;;0.63;;
31848;SDS011;18414;59.352;18.152;2023-04-01T11:52:17;1.23;;;0.50;;
31848;SDS011;18414;59.352;18.152;2023-04-01T11:57:50;0.60;;;0.60;;
31848;SDS011;18414;59.352;18.152;2023-04-01T12:06:35;0.40;;;0.40;;
31848;SDS011;18414;59.352;18.152;2023-04-01T12:12:14;0.70;;;0.60;;
31848;SDS011;18414;59.352;18.152;2023-04-01T12:15:02;0.40;;;0.40;;
31848;SDS011;18414;59.352;18.152;2023-04-01T12:17:39;0.50;;;0.50;;
31848;SDS011;18414;59.352;18.152;2023-04-01T12:30:37;0.50;;;0.50;;
31848;SDS011;18414;59.352;18.152;2023-04-01T12:33:26;0.43;;;0.43;;
31848;SDS011;18414;59.352;18.152;2023-04-01T12:44:49;0.70;;;0.50;;
31848;SDS011;18414;59.352;18.152;2023-04-01T12:48:37;0.60;;;0.50;;
31848;SDS011;18414;59.352;18.152;2023-04-01T12:56:07;0.47;;;0.47;;
31848;SDS011;18414;59.352;18.152;2023-04-01T12:58:51;0.50;;;0.50;;
31848;SDS011;18414;59.352;18.152;2023-04-01T13:15:28;0.50;;;0.50;;
31848;SDS011;18414;59.352;18.152;2023-04-01T13:28:40;0.70;;;0.50;;
31848;SDS011;18414;59.352;18.152;2023-04-01T13:44:56;0.40;;;0.40;;
31848;SDS011;18414;59.352;18.152;2023-04-01T13:47:49;0.60;;;0.60;;
31848;SDS011;18414;59.352;18.152;2023-04-01T13:50:34;0.67;;;0.60;;
31848;SDS011;18414;59.352;18.152;2023-04-01T14:04:32;0.43;;;0.43;;
31848;SDS011;18414;59.352;18.152;2023-04-01T14:12:49;0.67;;;0.60;;
31848;SDS011;18414;59.352;18.152;2023-04-01T14:20:40;0.60;;;0.60;;
31848;SDS011;18414;59.352;18.152;2023-04-01T14:26:18;3.03;;;0.40;;
31848;SDS011;18414;59.352;18.152;2023-04-01T14:37:01;1.23;;;0.67;;
31848;SDS011;18414;59.352;18.152;2023-04-01T14:50:24;1.00;;;0.50;;
31848;SDS011;18414;59.352;18.152;2023-04-01T14:55:58;0.97;;;0.70;;
31848;SDS011;18414;59.352;18.152;2023-04-01T14:58:40;1.47;;;0.60;;
31848;SDS011;18414;59.352;18.152;2023-04-01T15:01:32;1.03;;;0.70;;
31848;SDS011;18414;59.352;18.152;2023-04-01T15:07:06;0.83;;;0.50;;
31848;SDS011;18414;59.352;18.152;2023-04-01T15:12:37;1.13;;;0.67;;
31848;SDS011;18414;59.352;18.152;2023-04-01T15:31:10;1.77;;;0.60;;
31848;SDS011;18414;59.352;18.152;2023-04-01T15:44:51;2.93;;;0.77;;
31848;SDS011;18414;59.352;18.152;2023-04-01T15:49:51;1.90;;;0.70;;
31848;SDS011;18414;59.352;18.152;2023-04-01T16:01:09;0.50;;;0.47;;
31848;SDS011;18414;59.352;18.152;2023-04-01T16:04:15;1.23;;;0.80;;
31848;SDS011;18414;59.352;18.152;2023-04-01T16:12:19;1.57;;;0.90;;
31848;SDS011;18414;59.352;18.152;2023-04-01T16:26:27;1.80;;;0.70;;
31848;SDS011;18414;59.352;18.152;2023-04-01T16:28:57;0.97;;;0.70;;
31848;SDS011;18414;59.352;18.152;2023-04-01T16:31:55;0.43;;;0.43;;
31848;SDS011;18414;59.352;18.152;2023-04-01T16:34:47;0.60;;;0.60;;
31848;SDS011;18414;59.352;18.152;2023-04-01T16:37:38;1.67;;;0.77;;
31848;SDS011;18414;59.352;18.152;2023-04-01T16:40:25;1.33;;;0.90;;
31848;SDS011;18414;59.352;18.152;2023-04-01T16:43:21;1.90;;;0.80;;
31848;SDS011;18414;59.352;18.152;2023-04-01T16:54:56;2.33;;;0.93;;
31848;SDS011;18414;59.352;18.152;2023-04-01T16:59:58;2.20;;;0.90;;
31848;SDS011;18414;59.352;18.152;2023-04-01T17:02:36;4.07;;;1.20;;
31848;SDS011;18414;59.352;18.152;2023-04-01T17:05:10;4.40;;;1.07;;
31848;SDS011;18414;59.352;18.152;2023-04-01T17:10:36;3.60;;;1.03;;
31848;SDS011;18414;59.352;18.152;2023-04-01T17:26:57;5.40;;;1.00;;
31848;SDS011;18414;59.352;18.152;2023-04-01T17:35:19;2.03;;;1.20;;
31848;SDS011;18414;59.352;18.152;2023-04-01T17:49:15;3.00;;;0.90;;
31848;SDS011;18414;59.352;18.152;2023-04-01T17:57:43;2.87;;;1.07;;
31848;SDS011;18414;59.352;18.152;2023-04-01T18:05:33;3.97;;;1.20;;
31848;SDS011;18414;59.352;18.152;2023-04-01T18:08:26;3.87;;;1.10;;
31848;SDS011;18414;59.352;18.152;2023-04-01T18:19:39;3.00;;;1.30;;
31848;SDS011;18414;59.352;18.152;2023-04-01T18:22:16;2.27;;;1.37;;
31848;SDS011;18414;59.352;18.152;2023-04-01T18:24:45;3.20;;;1.20;;
31848;SDS011;18414;59.352;18.152;2023-04-01T18:27:38;3.50;;;1.40;;
31848;SDS011;18414;59.352;18.152;2023-04-01T18:30:07;5.20;;;1.63;;
31848;SDS011;18414;59.352;18.152;2023-04-01T18:32:52;2.97;;;1.10;;
31848;SDS011;18414;59.352;18.152;2023-04-01T18:38:12;4.97;;;1.27;;
31848;SDS011;18414;59.352;18.152;2023-04-01T18:43:46;8.70;;;1.53;;
31848;SDS011;18414;59.352;18.152;2023-04-01T18:47:07;3.80;;;1.20;;
31848;SDS011;18414;59.352;18.152;2023-04-01T19:00:25;4.13;;;1.67;;
31848;SDS011;18414;59.352;18.152;2023-04-01T19:05:34;5.53;;;1.77;;
31848;SDS011;18414;59.352;18.152;2023-04-01T19:22:32;5.20;;;1.37;;
31848;SDS011;18414;59.352;18.152;2023-04-01T19:27:50;5.70;;;1.53;;
31848;SDS011;18414;59.352;18.152;2023-04-01T19:47:35;6.20;;;1.67;;
31848;SDS011;18414;59.352;18.152;2023-04-01T19:50:34;5.83;;;1.60;;
31848;SDS011;18414;59.352;18.152;2023-04-01T19:53:22;7.93;;;1.43;;
31848;SDS011;18414;59.352;18.152;2023-04-01T19:56:20;3.90;;;1.50;;
31848;SDS011;18414;59.352;18.152;2023-04-01T19:58:54;3.63;;;1.27;;
31848;SDS011;18414;59.352;18.152;2023-04-01T20:01:37;5.47;;;1.60;;
31848;SDS011;18414;59.352;18.152;2023-04-01T20:04:07;5.83;;;1.67;;
31848;SDS011;18414;59.352;18.152;2023-04-01T20:06:39;6.07;;;1.23;;
31848;SDS011;18414;59.352;18.152;2023-04-01T20:12:00;4.03;;;1.40;;
31848;SDS011;18414;59.352;18.152;2023-04-01T20:25:16;6.40;;;1.30;;
31848;SDS011;18414;59.352;18.152;2023-04-01T20:27:51;6.13;;;1.40;;
31848;SDS011;18414;59.352;18.152;2023-04-01T20:30:43;6.43;;;1.57;;
31848;SDS011;18414;59.352;18.152;2023-04-01T20:36:24;3.93;;;1.73;;
31848;SDS011;18414;59.352;18.152;2023-04-01T20:41:51;7.73;;;1.60;;
31848;SDS011;18414;59.352;18.152;2023-04-01T20:50:11;6.20;;;1.40;;
31848;SDS011;18414;59.352;18.152;2023-04-01T20:55:26;6.23;;;1.70;;
31848;SDS011;18414;59.352;18.152;2023-04-01T21:00:49;6.33;;;1.57;;
31848;SDS011;18414;59.352;18.152;2023-04-01T21:03:19;6.93;;;1.30;;
31848;SDS011;18414;59.352;18.152;2023-04-01T21:09:18;5.17;;;1.20;;
31848;SDS011;18414;59.352;18.152;2023-04-01T21:22:44;8.27;;;1.60;;
31848;SDS011;18414;59.352;18.152;2023-04-01T21:25:30;5.17;;;1.37;;
31848;SDS011;18414;59.352;18.152;2023-04-01T21:30:47;6.77;;;1.60;;
31848;SDS011;18414;59.352;18.152;2023-04-01T21:41:56;6.87;;;1.67;;
31848;SDS011;18414;59.352;18.152;2023-04-01T21:50:13;7.53;;;1.60;;
31848;SDS011;18414;59.352;18.152;2023-04-01T21:53:09;6.70;;;1.30;;
31848;SDS011;18414;59.352;18.152;2023-04-01T21:58:50;5.33;;;1.30;;
31848;SDS011;18414;59.352;18.152;2023-04-01T22:04:14;2.30;;;1.40;;
31848;SDS011;18414;59.352;18.152;2023-04-01T22:10:09;4.53;;;1.40;;
31848;SDS011;18414;59.352;18.152;2023-04-01T22:12:50;5.93;;;1.37;;
31848;SDS011;18414;59.352;18.152;2023-04-01T22:18:32;8.00;;;1.60;;
31848;SDS011;18414;59.352;18.152;2023-04-01T22:26:24;4.37;;;1.30;;
31848;SDS011;18414;59.352;18.152;2023-04-01T22:31:49;4.20;;;1.33;;
31848;SDS011;18414;59.352;18.152;2023-04-01T22:34:36;8.70;;;1.27;;
31848;SDS011;18414;59.352;18.152;2023-04-01T22:42:24;4.17;;;1.13;;
31848;SDS011;18414;59.352;18.152;2023-04-01T22:45:15;4.67;;;1.30;;
31848;SDS011;18414;59.352;18.152;2023-04-01T22:50:27;7.67;;;1.40;;
31848;SDS011;18414;59.352;18.152;2023-04-01T22:53:47;4.90;;;1.43;;
31848;SDS011;18414;59.352;18.152;2023-04-01T22:56:03;5.43;;;1.40;;
31848;SDS011;18414;59.352;18.152;2023-04-01T22:58:32;4.03;;;1.50;;
31848;SDS011;18414;59.352;18.152;2023-04-01T23:01:06;9.97;;;1.30;;
31848;SDS011;18414;59.352;18.152;2023-04-01T23:03:38;7.90;;;1.57;;
31848;SDS011;18414;59.352;18.152;2023-04-01T23:06:05;6.63;;;1.50;;
31848;SDS011;18414;59.352;18.152;2023-04-01T23:10:58;6.57;;;1.47;;
31848;SDS011;18414;59.352;18.152;2023-04-01T23:13:29;3.97;;;1.00;;
31848;SDS011;18414;59.352;18.152;2023-04-01T23:15:57;7.20;;;1.47;;
31848;SDS011;18414;59.352;18.152;2023-04-01T23:28:56;5.37;;;1.70;;
31848;SDS011;18414;59.352;18.152;2023-04-01T23:33:53;6.43;;;1.40;;
31848;SDS011;18414;59.352;18.152;2023-04-01T23:36:20;4.37;;;1.57;;
31848;SDS011;18414;59.352;18.152;2023-04-01T23:38:46;2.87;;;1.10;;
31848;SDS011;18414;59.352;18.152;2023-04-01T23:41:20;5.20;;;1.43;;
31848;SDS011;18414;59.352;18.152;2023-04-01T23:43:52;5.80;;;1.70;;
31848;SDS011;18414;59.352;18.152;2023-04-01T23:46:21;6.67;;;1.37;;
31848;SDS011;18414;59.352;18.152;2023-04-01T23:48:46;5.13;;;1.40;;
31848;SDS011;18414;59.352;18.152;2023-04-01T23:51:22;3.47;;;1.37;;
31848;SDS011;18414;59.352;18.152;2023-04-01T23:53:55;4.83;;;1.13;;
31848;SDS011;18414;59.352;18.152;2023-04-01T23:56:34;4.63;;;1.33;;
31848;SDS011;18414;59.352;18.152;2023-04-01T23:59:02;7.30;;;1.57;;
